sensor_id;sensor_type;location;lat;lon;timestamp;P1;durP1;ratioP1;P2;durP2;ratioP2
20589;SDS011;10453;50.810;12.540;2022-12-29T00:03:29;1.90;;;1.50;;
20589;SDS011;10453;50.810;12.540;2022-12-29T00:07:46;2.25;;;1.55;;
20589;SDS011;10453;50.810;12.540;2022-12-29T00:12:03;7.75;;;1.80;;
20589;SDS011;10453;50.810;12.540;2022-12-29T00:16:21;3.17;;;1.70;;
20589;SDS011;10453;50.810;12.540;2022-12-29T00:20:38;3.55;;;1.50;;
20589;SDS011;10453;50.810;12.540;2022-12-29T00:25:14;2.75;;;1.50;;
20589;SDS011;10453;50.810;12.540;2022-12-29T00:29:51;3.42;;;1.40;;
20589;SDS011;10453;50.810;12.540;2022-12-29T00:34:27;2.55;;;1.42;;
20589;SDS011;10453;50.810;12.540;2022-12-29T00:39:07;2.97;;;1.30;;
20589;SDS011;10453;50.810;12.540;2022-12-29T00:43:47;4.68;;;1.60;;
20589;SDS011;10453;50.810;12.540;2022-12-29T00:48:22;2.63;;;1.30;;
20589;SDS011;10453;50.810;12.540;2022-12-29T00:52:58;3.63;;;1.45;;
20589;SDS011;10453;50.810;12.540;2022-12-29T00:57:15;3.10;;;1.30;;
20589;SDS011;10453;50.810;12.540;2022-12-29T01:01:33;2.67;;;1.83;;
20589;SDS011;10453;50.810;12.540;2022-12-29T01:05:52;1.50;;;1.38;;
20589;SDS011;10453;50.810;12.540;2022-12-29T01:10:09;2.00;;;1.50;;
20589;SDS011;10453;50.810;12.540;2022-12-29T01:14:26;2.63;;;1.50;;
20589;SDS011;10453;50.810;12.540;2022-12-29T01:18:44;3.70;;;1.37;;
20589;SDS011;10453;50.810;12.540;2022-12-29T01:23:01;4.82;;;1.40;;
20589;SDS011;10453;50.810;12.540;2022-12-29T01:27:18;4.32;;;1.63;;
20589;SDS011;10453;50.810;12.540;2022-12-29T01:31:35;2.28;;;1.40;;
20589;SDS011;10453;50.810;12.540;2022-12-29T01:35:53;5.57;;;1.65;;
20589;SDS011;10453;50.810;12.540;2022-12-29T01:40:10;1.85;;;1.50;;
20589;SDS011;10453;50.810;12.540;2022-12-29T01:53:25;3.10;;;1.42;;
20589;SDS011;10453;50.810;12.540;2022-12-29T01:57:46;2.88;;;1.98;;
20589;SDS011;10453;50.810;12.540;2022-12-29T02:02:07;2.63;;;1.60;;
20589;SDS011;10453;50.810;12.540;2022-12-29T02:06:28;6.35;;;1.70;;
20589;SDS011;10453;50.810;12.540;2022-12-29T02:10:51;1.90;;;1.50;;
20589;SDS011;10453;50.810;12.540;2022-12-29T02:15:10;2.53;;;1.35;;
20589;SDS011;10453;50.810;12.540;2022-12-29T02:24:16;2.05;;;1.27;;
20589;SDS011;10453;50.810;12.540;2022-12-29T02:29:06;4.13;;;1.58;;
20589;SDS011;10453;50.810;12.540;2022-12-29T02:38:28;3.55;;;1.50;;
20589;SDS011;10453;50.810;12.540;2022-12-29T02:47:43;2.13;;;1.48;;
20589;SDS011;10453;50.810;12.540;2022-12-29T02:52:25;3.55;;;1.60;;
20589;SDS011;10453;50.810;12.540;2022-12-29T02:56:59;5.20;;;1.90;;
20589;SDS011;10453;50.810;12.540;2022-12-29T03:01:22;2.25;;;1.60;;
20589;SDS011;10453;50.810;12.540;2022-12-29T03:10:49;5.80;;;1.40;;
20589;SDS011;10453;50.810;12.540;2022-12-29T03:15:20;2.05;;;1.75;;
20589;SDS011;10453;50.810;12.540;2022-12-29T03:20:03;2.55;;;1.50;;
20589;SDS011;10453;50.810;12.540;2022-12-29T03:24:25;4.03;;;1.50;;
20589;SDS011;10453;50.810;12.540;2022-12-29T03:28:47;3.92;;;1.38;;
20589;SDS011;10453;50.810;12.540;2022-12-29T03:33:10;2.22;;;1.50;;
20589;SDS011;10453;50.810;12.540;2022-12-29T03:37:34;3.42;;;1.30;;
20589;SDS011;10453;50.810;12.540;2022-12-29T03:41:58;2.42;;;1.17;;
20589;SDS011;10453;50.810;12.540;2022-12-29T03:46:19;2.95;;;1.60;;
20589;SDS011;10453;50.810;12.540;2022-12-29T03:50:36;4.00;;;1.48;;
20589;SDS011;10453;50.810;12.540;2022-12-29T03:54:53;4.25;;;1.40;;
20589;SDS011;10453;50.810;12.540;2022-12-29T03:59:10;3.70;;;1.60;;
20589;SDS011;10453;50.810;12.540;2022-12-29T04:03:27;4.07;;;1.65;;
20589;SDS011;10453;50.810;12.540;2022-12-29T04:07:45;3.90;;;1.55;;
20589;SDS011;10453;50.810;12.540;2022-12-29T04:12:02;2.88;;;1.70;;
20589;SDS011;10453;50.810;12.540;2022-12-29T04:16:19;2.00;;;1.42;;
20589;SDS011;10453;50.810;12.540;2022-12-29T04:20:36;3.17;;;1.50;;
20589;SDS011;10453;50.810;12.540;2022-12-29T04:25:12;5.50;;;1.70;;
20589;SDS011;10453;50.810;12.540;2022-12-29T04:29:30;4.78;;;1.70;;
20589;SDS011;10453;50.810;12.540;2022-12-29T04:33:47;3.15;;;1.58;;
20589;SDS011;10453;50.810;12.540;2022-12-29T04:38:04;4.63;;;1.90;;
20589;SDS011;10453;50.810;12.540;2022-12-29T04:42:21;2.72;;;1.42;;
20589;SDS011;10453;50.810;12.540;2022-12-29T04:46:38;5.88;;;1.98;;
20589;SDS011;10453;50.810;12.540;2022-12-29T04:50:56;3.80;;;1.33;;
20589;SDS011;10453;50.810;12.540;2022-12-29T04:55:13;3.88;;;1.88;;
20589;SDS011;10453;50.810;12.540;2022-12-29T04:59:30;2.60;;;1.50;;
20589;SDS011;10453;50.810;12.540;2022-12-29T05:03:49;3.80;;;1.77;;
20589;SDS011;10453;50.810;12.540;2022-12-29T05:08:07;5.05;;;1.40;;
20589;SDS011;10453;50.810;12.540;2022-12-29T05:12:24;2.83;;;1.80;;
20589;SDS011;10453;50.810;12.540;2022-12-29T05:16:42;2.97;;;1.50;;
20589;SDS011;10453;50.810;12.540;2022-12-29T05:20:59;2.45;;;1.30;;
20589;SDS011;10453;50.810;12.540;2022-12-29T05:25:16;4.95;;;1.75;;
20589;SDS011;10453;50.810;12.540;2022-12-29T05:29:33;5.15;;;1.50;;
20589;SDS011;10453;50.810;12.540;2022-12-29T05:33:50;3.22;;;1.60;;
20589;SDS011;10453;50.810;12.540;2022-12-29T05:38:07;5.80;;;1.60;;
20589;SDS011;10453;50.810;12.540;2022-12-29T05:42:24;2.47;;;1.45;;
20589;SDS011;10453;50.810;12.540;2022-12-29T05:46:41;2.00;;;1.40;;
20589;SDS011;10453;50.810;12.540;2022-12-29T05:50:59;5.22;;;1.60;;
20589;SDS011;10453;50.810;12.540;2022-12-29T05:55:16;4.32;;;1.80;;
20589;SDS011;10453;50.810;12.540;2022-12-29T05:59:34;3.30;;;1.43;;
20589;SDS011;10453;50.810;12.540;2022-12-29T06:03:51;4.28;;;1.40;;
20589;SDS011;10453;50.810;12.540;2022-12-29T06:08:08;4.07;;;1.60;;
20589;SDS011;10453;50.810;12.540;2022-12-29T06:12:25;3.08;;;1.60;;
20589;SDS011;10453;50.810;12.540;2022-12-29T06:16:43;2.72;;;1.48;;
20589;SDS011;10453;50.810;12.540;2022-12-29T06:21:00;3.22;;;1.67;;
20589;SDS011;10453;50.810;12.540;2022-12-29T06:29:35;4.28;;;1.60;;
20589;SDS011;10453;50.810;12.540;2022-12-29T06:33:53;10.25;;;1.60;;
20589;SDS011;10453;50.810;12.540;2022-12-29T06:38:10;2.25;;;1.55;;
20589;SDS011;10453;50.810;12.540;2022-12-29T06:42:28;3.28;;;1.23;;
20589;SDS011;10453;50.810;12.540;2022-12-29T06:46:45;3.38;;;1.80;;
20589;SDS011;10453;50.810;12.540;2022-12-29T06:51:02;4.78;;;1.98;;
20589;SDS011;10453;50.810;12.540;2022-12-29T06:55:19;3.38;;;1.83;;
20589;SDS011;10453;50.810;12.540;2022-12-29T06:59:37;3.85;;;1.67;;
20589;SDS011;10453;50.810;12.540;2022-12-29T07:03:54;3.13;;;2.17;;
20589;SDS011;10453;50.810;12.540;2022-12-29T07:08:12;2.92;;;1.60;;
20589;SDS011;10453;50.810;12.540;2022-12-29T07:12:29;2.60;;;1.63;;
20589;SDS011;10453;50.810;12.540;2022-12-29T07:16:46;3.08;;;1.60;;
20589;SDS011;10453;50.810;12.540;2022-12-29T07:21:04;5.05;;;1.88;;
20589;SDS011;10453;50.810;12.540;2022-12-29T07:25:21;4.68;;;1.52;;
20589;SDS011;10453;50.810;12.540;2022-12-29T07:29:39;6.32;;;1.95;;
20589;SDS011;10453;50.810;12.540;2022-12-29T07:33:56;3.10;;;1.52;;
20589;SDS011;10453;50.810;12.540;2022-12-29T07:38:13;4.30;;;1.52;;
20589;SDS011;10453;50.810;12.540;2022-12-29T07:42:30;3.40;;;1.67;;
20589;SDS011;10453;50.810;12.540;2022-12-29T07:46:48;2.45;;;1.40;;
20589;SDS011;10453;50.810;12.540;2022-12-29T07:51:12;2.67;;;1.70;;
20589;SDS011;10453;50.810;12.540;2022-12-29T07:55:30;4.13;;;1.50;;
20589;SDS011;10453;50.810;12.540;2022-12-29T07:59:47;1.92;;;1.30;;
20589;SDS011;10453;50.810;12.540;2022-12-29T08:04:04;2.15;;;1.70;;
20589;SDS011;10453;50.810;12.540;2022-12-29T08:08:22;3.93;;;1.80;;
20589;SDS011;10453;50.810;12.540;2022-12-29T08:12:39;3.22;;;1.60;;
20589;SDS011;10453;50.810;12.540;2022-12-29T08:16:57;3.70;;;1.50;;
20589;SDS011;10453;50.810;12.540;2022-12-29T08:21:14;2.90;;;1.80;;
20589;SDS011;10453;50.810;12.540;2022-12-29T08:25:31;2.63;;;1.40;;
20589;SDS011;10453;50.810;12.540;2022-12-29T08:29:48;5.07;;;2.88;;
20589;SDS011;10453;50.810;12.540;2022-12-29T08:34:06;4.65;;;1.90;;
20589;SDS011;10453;50.810;12.540;2022-12-29T08:38:23;3.85;;;1.90;;
20589;SDS011;10453;50.810;12.540;2022-12-29T08:42:40;1.98;;;1.40;;
20589;SDS011;10453;50.810;12.540;2022-12-29T08:46:57;2.45;;;1.50;;
20589;SDS011;10453;50.810;12.540;2022-12-29T08:51:14;4.22;;;1.65;;
20589;SDS011;10453;50.810;12.540;2022-12-29T08:55:38;5.68;;;1.52;;
20589;SDS011;10453;50.810;12.540;2022-12-29T08:59:55;2.80;;;1.40;;
20589;SDS011;10453;50.810;12.540;2022-12-29T09:04:12;1.58;;;1.23;;
20589;SDS011;10453;50.810;12.540;2022-12-29T09:08:32;2.33;;;1.30;;
20589;SDS011;10453;50.810;12.540;2022-12-29T09:12:50;4.18;;;1.42;;
20589;SDS011;10453;50.810;12.540;2022-12-29T09:17:07;3.72;;;1.40;;
20589;SDS011;10453;50.810;12.540;2022-12-29T09:21:42;5.85;;;1.75;;
20589;SDS011;10453;50.810;12.540;2022-12-29T09:26:00;3.05;;;1.70;;
20589;SDS011;10453;50.810;12.540;2022-12-29T09:30:17;3.63;;;1.52;;
20589;SDS011;10453;50.810;12.540;2022-12-29T09:34:35;3.35;;;1.35;;
20589;SDS011;10453;50.810;12.540;2022-12-29T09:38:52;5.93;;;1.73;;
20589;SDS011;10453;50.810;12.540;2022-12-29T09:48:00;5.00;;;1.70;;
20589;SDS011;10453;50.810;12.540;2022-12-29T09:52:26;4.47;;;1.75;;
20589;SDS011;10453;50.810;12.540;2022-12-29T09:56:49;5.13;;;1.50;;
20589;SDS011;10453;50.810;12.540;2022-12-29T10:01:16;5.30;;;1.70;;
20589;SDS011;10453;50.810;12.540;2022-12-29T10:06:03;3.90;;;1.60;;
20589;SDS011;10453;50.810;12.540;2022-12-29T10:23:59;6.50;;;1.80;;
20589;SDS011;10453;50.810;12.540;2022-12-29T10:28:22;4.28;;;1.60;;
20589;SDS011;10453;50.810;12.540;2022-12-29T10:32:43;3.10;;;1.65;;
20589;SDS011;10453;50.810;12.540;2022-12-29T10:37:52;2.25;;;1.50;;
20589;SDS011;10453;50.810;12.540;2022-12-29T10:41:57;3.35;;;1.63;;
20589;SDS011;10453;50.810;12.540;2022-12-29T10:46:29;2.03;;;1.38;;
20589;SDS011;10453;50.810;12.540;2022-12-29T10:50:51;5.03;;;1.38;;
20589;SDS011;10453;50.810;12.540;2022-12-29T10:55:19;2.97;;;2.35;;
20589;SDS011;10453;50.810;12.540;2022-12-29T10:59:41;3.58;;;2.03;;
20589;SDS011;10453;50.810;12.540;2022-12-29T11:04:07;3.35;;;1.73;;
20589;SDS011;10453;50.810;12.540;2022-12-29T11:08:56;5.97;;;1.98;;
20589;SDS011;10453;50.810;12.540;2022-12-29T11:13:48;3.55;;;1.50;;
20589;SDS011;10453;50.810;12.540;2022-12-29T11:22:34;6.15;;;1.60;;
20589;SDS011;10453;50.810;12.540;2022-12-29T11:27:15;3.17;;;1.55;;
20589;SDS011;10453;50.810;12.540;2022-12-29T11:31:36;2.55;;;1.65;;
20589;SDS011;10453;50.810;12.540;2022-12-29T11:36:17;4.93;;;1.83;;
20589;SDS011;10453;50.810;12.540;2022-12-29T11:40:38;2.58;;;1.60;;
20589;SDS011;10453;50.810;12.540;2022-12-29T11:44:56;2.25;;;1.45;;
20589;SDS011;10453;50.810;12.540;2022-12-29T11:49:13;5.35;;;1.80;;
20589;SDS011;10453;50.810;12.540;2022-12-29T11:57:54;5.72;;;1.60;;
20589;SDS011;10453;50.810;12.540;2022-12-29T12:06:41;4.03;;;1.90;;
20589;SDS011;10453;50.810;12.540;2022-12-29T12:11:25;3.42;;;1.60;;
20589;SDS011;10453;50.810;12.540;2022-12-29T12:16:11;4.90;;;1.80;;
20589;SDS011;10453;50.810;12.540;2022-12-29T12:25:20;7.82;;;2.05;;
20589;SDS011;10453;50.810;12.540;2022-12-29T12:34:07;3.33;;;2.00;;
20589;SDS011;10453;50.810;12.540;2022-12-29T12:38:44;4.50;;;1.52;;
20589;SDS011;10453;50.810;12.540;2022-12-29T12:43:41;7.60;;;2.15;;
20589;SDS011;10453;50.810;12.540;2022-12-29T13:01:50;3.97;;;2.23;;
20589;SDS011;10453;50.810;12.540;2022-12-29T13:06:40;2.58;;;1.80;;
20589;SDS011;10453;50.810;12.540;2022-12-29T13:16:01;4.10;;;1.60;;
20589;SDS011;10453;50.810;12.540;2022-12-29T13:20:38;4.80;;;1.80;;
20589;SDS011;10453;50.810;12.540;2022-12-29T13:30:00;7.72;;;1.52;;
20589;SDS011;10453;50.810;12.540;2022-12-29T13:34:51;4.10;;;1.92;;
20589;SDS011;10453;50.810;12.540;2022-12-29T13:39:25;3.45;;;1.80;;
20589;SDS011;10453;50.810;12.540;2022-12-29T13:44:02;2.20;;;1.63;;
20589;SDS011;10453;50.810;12.540;2022-12-29T13:48:22;1.88;;;1.55;;
20589;SDS011;10453;50.810;12.540;2022-12-29T14:01:46;3.00;;;1.70;;
20589;SDS011;10453;50.810;12.540;2022-12-29T14:10:50;4.18;;;1.92;;
20589;SDS011;10453;50.810;12.540;2022-12-29T14:19:38;4.35;;;1.80;;
20589;SDS011;10453;50.810;12.540;2022-12-29T14:28:44;2.45;;;1.58;;
20589;SDS011;10453;50.810;12.540;2022-12-29T14:33:11;3.35;;;1.83;;
20589;SDS011;10453;50.810;12.540;2022-12-29T14:37:36;4.70;;;1.92;;
20589;SDS011;10453;50.810;12.540;2022-12-29T14:46:48;5.47;;;2.55;;
20589;SDS011;10453;50.810;12.540;2022-12-29T14:51:21;3.72;;;1.70;;
20589;SDS011;10453;50.810;12.540;2022-12-29T14:55:46;6.35;;;2.00;;
20589;SDS011;10453;50.810;12.540;2022-12-29T15:00:22;4.30;;;2.38;;
20589;SDS011;10453;50.810;12.540;2022-12-29T15:04:43;5.25;;;2.20;;
20589;SDS011;10453;50.810;12.540;2022-12-29T15:09:06;4.63;;;1.60;;
20589;SDS011;10453;50.810;12.540;2022-12-29T15:13:38;2.72;;;1.08;;
20589;SDS011;10453;50.810;12.540;2022-12-29T15:17:58;1.77;;;1.10;;
20589;SDS011;10453;50.810;12.540;2022-12-29T15:22:31;4.65;;;2.42;;
20589;SDS011;10453;50.810;12.540;2022-12-29T15:26:52;1.80;;;1.20;;
20589;SDS011;10453;50.810;12.540;2022-12-29T15:31:11;1.92;;;1.15;;
20589;SDS011;10453;50.810;12.540;2022-12-29T15:35:39;1.50;;;1.10;;
20589;SDS011;10453;50.810;12.540;2022-12-29T15:39:56;1.63;;;0.90;;
20589;SDS011;10453;50.810;12.540;2022-12-29T15:44:17;1.50;;;1.00;;
20589;SDS011;10453;50.810;12.540;2022-12-29T15:48:40;1.30;;;0.80;;
20589;SDS011;10453;50.810;12.540;2022-12-29T15:52:57;2.08;;;1.20;;
20589;SDS011;10453;50.810;12.540;2022-12-29T15:57:41;2.10;;;0.90;;
20589;SDS011;10453;50.810;12.540;2022-12-29T16:01:57;1.73;;;0.80;;
20589;SDS011;10453;50.810;12.540;2022-12-29T16:06:25;3.47;;;1.48;;
20589;SDS011;10453;50.810;12.540;2022-12-29T16:11:00;3.20;;;0.90;;
20589;SDS011;10453;50.810;12.540;2022-12-29T16:15:19;2.90;;;1.17;;
20589;SDS011;10453;50.810;12.540;2022-12-29T16:19:37;2.42;;;0.88;;
20589;SDS011;10453;50.810;12.540;2022-12-29T16:23:59;4.30;;;3.03;;
20589;SDS011;10453;50.810;12.540;2022-12-29T16:28:22;8.52;;;4.20;;
20589;SDS011;10453;50.810;12.540;2022-12-29T16:32:45;3.72;;;1.25;;
20589;SDS011;10453;50.810;12.540;2022-12-29T16:37:05;3.33;;;2.00;;
20589;SDS011;10453;50.810;12.540;2022-12-29T16:41:44;2.13;;;1.10;;
20589;SDS011;10453;50.810;12.540;2022-12-29T16:50:19;4.97;;;2.50;;
20589;SDS011;10453;50.810;12.540;2022-12-29T16:54:48;2.08;;;1.42;;
20589;SDS011;10453;50.810;12.540;2022-12-29T16:59:21;1.85;;;1.00;;
20589;SDS011;10453;50.810;12.540;2022-12-29T17:04:00;2.35;;;1.13;;
20589;SDS011;10453;50.810;12.540;2022-12-29T17:08:23;3.25;;;1.30;;
20589;SDS011;10453;50.810;12.540;2022-12-29T17:12:40;2.47;;;1.90;;
20589;SDS011;10453;50.810;12.540;2022-12-29T17:17:00;4.43;;;1.65;;
20589;SDS011;10453;50.810;12.540;2022-12-29T17:21:19;3.60;;;1.80;;
20589;SDS011;10453;50.810;12.540;2022-12-29T17:25:36;3.70;;;2.03;;
20589;SDS011;10453;50.810;12.540;2022-12-29T17:30:05;3.72;;;2.50;;
20589;SDS011;10453;50.810;12.540;2022-12-29T17:34:27;2.92;;;1.95;;
20589;SDS011;10453;50.810;12.540;2022-12-29T17:38:44;5.25;;;2.47;;
20589;SDS011;10453;50.810;12.540;2022-12-29T17:43:02;3.92;;;2.50;;
20589;SDS011;10453;50.810;12.540;2022-12-29T17:47:19;6.32;;;2.75;;
20589;SDS011;10453;50.810;12.540;2022-12-29T17:51:36;5.00;;;2.63;;
20589;SDS011;10453;50.810;12.540;2022-12-29T17:55:53;4.82;;;2.50;;
20589;SDS011;10453;50.810;12.540;2022-12-29T18:00:15;5.22;;;2.20;;
20589;SDS011;10453;50.810;12.540;2022-12-29T18:04:43;3.83;;;2.80;;
20589;SDS011;10453;50.810;12.540;2022-12-29T18:09:00;2.38;;;1.85;;
20589;SDS011;10453;50.810;12.540;2022-12-29T18:13:18;4.80;;;2.17;;
20589;SDS011;10453;50.810;12.540;2022-12-29T18:17:46;4.95;;;2.60;;
20589;SDS011;10453;50.810;12.540;2022-12-29T18:22:03;5.00;;;2.60;;
20589;SDS011;10453;50.810;12.540;2022-12-29T18:26:21;5.32;;;2.47;;
20589;SDS011;10453;50.810;12.540;2022-12-29T18:30:44;4.57;;;2.50;;
20589;SDS011;10453;50.810;12.540;2022-12-29T18:35:02;6.63;;;2.40;;
20589;SDS011;10453;50.810;12.540;2022-12-29T18:39:19;4.50;;;2.05;;
20589;SDS011;10453;50.810;12.540;2022-12-29T18:43:44;3.65;;;2.28;;
20589;SDS011;10453;50.810;12.540;2022-12-29T18:48:01;5.82;;;2.55;;
20589;SDS011;10453;50.810;12.540;2022-12-29T18:52:18;3.13;;;1.73;;
20589;SDS011;10453;50.810;12.540;2022-12-29T18:56:35;2.65;;;1.90;;
20589;SDS011;10453;50.810;12.540;2022-12-29T19:00:52;3.47;;;1.65;;
20589;SDS011;10453;50.810;12.540;2022-12-29T19:05:17;3.10;;;1.88;;
20589;SDS011;10453;50.810;12.540;2022-12-29T19:09:37;4.28;;;2.28;;
20589;SDS011;10453;50.810;12.540;2022-12-29T19:13:54;3.75;;;1.95;;
20589;SDS011;10453;50.810;12.540;2022-12-29T19:18:15;5.28;;;3.67;;
20589;SDS011;10453;50.810;12.540;2022-12-29T19:22:55;3.03;;;2.35;;
20589;SDS011;10453;50.810;12.540;2022-12-29T19:27:14;10.02;;;6.57;;
20589;SDS011;10453;50.810;12.540;2022-12-29T19:31:31;4.47;;;2.13;;
20589;SDS011;10453;50.810;12.540;2022-12-29T19:35:49;7.10;;;2.10;;
20589;SDS011;10453;50.810;12.540;2022-12-29T19:40:07;3.92;;;1.92;;
20589;SDS011;10453;50.810;12.540;2022-12-29T19:44:27;10.32;;;6.03;;
20589;SDS011;10453;50.810;12.540;2022-12-29T19:48:44;2.90;;;1.70;;
20589;SDS011;10453;50.810;12.540;2022-12-29T19:53:01;1.85;;;1.00;;
20589;SDS011;10453;50.810;12.540;2022-12-29T19:57:21;1.92;;;1.00;;
20589;SDS011;10453;50.810;12.540;2022-12-29T20:01:38;2.70;;;0.98;;
20589;SDS011;10453;50.810;12.540;2022-12-29T20:05:56;1.75;;;1.05;;
20589;SDS011;10453;50.810;12.540;2022-12-29T20:10:13;1.92;;;1.00;;
20589;SDS011;10453;50.810;12.540;2022-12-29T20:14:30;2.92;;;0.95;;
20589;SDS011;10453;50.810;12.540;2022-12-29T20:18:47;3.08;;;1.27;;
20589;SDS011;10453;50.810;12.540;2022-12-29T20:23:05;2.97;;;1.10;;
20589;SDS011;10453;50.810;12.540;2022-12-29T20:27:22;3.72;;;1.33;;
20589;SDS011;10453;50.810;12.540;2022-12-29T20:31:39;6.28;;;2.72;;
20589;SDS011;10453;50.810;12.540;2022-12-29T20:36:06;34.05;;;18.20;;
20589;SDS011;10453;50.810;12.540;2022-12-29T20:40:25;5.68;;;3.17;;
20589;SDS011;10453;50.810;12.540;2022-12-29T20:44:42;8.13;;;5.88;;
20589;SDS011;10453;50.810;12.540;2022-12-29T20:48:59;10.00;;;8.50;;
20589;SDS011;10453;50.810;12.540;2022-12-29T20:53:16;4.63;;;2.00;;
20589;SDS011;10453;50.810;12.540;2022-12-29T20:57:33;2.60;;;2.22;;
20589;SDS011;10453;50.810;12.540;2022-12-29T21:02:17;4.07;;;2.00;;
20589;SDS011;10453;50.810;12.540;2022-12-29T21:06:37;4.88;;;1.92;;
20589;SDS011;10453;50.810;12.540;2022-12-29T21:10:54;3.42;;;1.90;;
20589;SDS011;10453;50.810;12.540;2022-12-29T21:15:14;31.23;;;21.08;;
20589;SDS011;10453;50.810;12.540;2022-12-29T21:19:31;26.85;;;16.98;;
20589;SDS011;10453;50.810;12.540;2022-12-29T21:23:49;9.10;;;6.65;;
20589;SDS011;10453;50.810;12.540;2022-12-29T21:28:08;15.70;;;11.63;;
20589;SDS011;10453;50.810;12.540;2022-12-29T21:32:27;30.55;;;23.83;;
20589;SDS011;10453;50.810;12.540;2022-12-29T21:36:44;10.15;;;9.10;;
20589;SDS011;10453;50.810;12.540;2022-12-29T21:41:05;11.50;;;7.80;;
20589;SDS011;10453;50.810;12.540;2022-12-29T21:45:24;24.02;;;21.38;;
20589;SDS011;10453;50.810;12.540;2022-12-29T21:49:41;13.90;;;7.10;;
20589;SDS011;10453;50.810;12.540;2022-12-29T21:53:59;6.97;;;5.07;;
20589;SDS011;10453;50.810;12.540;2022-12-29T21:58:49;8.60;;;6.45;;
20589;SDS011;10453;50.810;12.540;2022-12-29T22:03:25;8.93;;;5.32;;
20589;SDS011;10453;50.810;12.540;2022-12-29T22:08:01;7.43;;;4.13;;
20589;SDS011;10453;50.810;12.540;2022-12-29T22:12:37;8.25;;;3.25;;
20589;SDS011;10453;50.810;12.540;2022-12-29T22:17:14;14.57;;;9.45;;
20589;SDS011;10453;50.810;12.540;2022-12-29T22:21:35;28.50;;;15.75;;
20589;SDS011;10453;50.810;12.540;2022-12-29T22:25:52;93.50;;;42.15;;
20589;SDS011;10453;50.810;12.540;2022-12-29T22:30:09;280.92;;;114.03;;
20589;SDS011;10453;50.810;12.540;2022-12-29T22:34:27;115.20;;;44.03;;
20589;SDS011;10453;50.810;12.540;2022-12-29T22:38:44;55.60;;;23.48;;
20589;SDS011;10453;50.810;12.540;2022-12-29T22:43:01;19.98;;;9.77;;
20589;SDS011;10453;50.810;12.540;2022-12-29T22:47:26;15.70;;;6.55;;
20589;SDS011;10453;50.810;12.540;2022-12-29T22:51:43;18.27;;;8.57;;
20589;SDS011;10453;50.810;12.540;2022-12-29T22:56:04;7.22;;;2.25;;
20589;SDS011;10453;50.810;12.540;2022-12-29T23:00:23;9.43;;;3.10;;
20589;SDS011;10453;50.810;12.540;2022-12-29T23:04:40;8.23;;;2.80;;
20589;SDS011;10453;50.810;12.540;2022-12-29T23:09:19;7.60;;;2.88;;
20589;SDS011;10453;50.810;12.540;2022-12-29T23:13:37;5.63;;;2.35;;
20589;SDS011;10453;50.810;12.540;2022-12-29T23:17:56;5.53;;;1.40;;
20589;SDS011;10453;50.810;12.540;2022-12-29T23:22:13;13.63;;;4.50;;
20589;SDS011;10453;50.810;12.540;2022-12-29T23:30:52;4.20;;;1.80;;
20589;SDS011;10453;50.810;12.540;2022-12-29T23:35:09;7.30;;;2.45;;
20589;SDS011;10453;50.810;12.540;2022-12-29T23:39:26;6.50;;;2.42;;
20589;SDS011;10453;50.810;12.540;2022-12-29T23:43:44;6.25;;;1.88;;
20589;SDS011;10453;50.810;12.540;2022-12-29T23:48:02;9.77;;;2.25;;
20589;SDS011;10453;50.810;12.540;2022-12-29T23:52:20;4.93;;;1.70;;
20589;SDS011;10453;50.810;12.540;2022-12-29T23:56:37;8.20;;;1.90;;
